createdAt,value
2022-10-13T00:00:35.206Z,101369.16
2022-10-13T00:03:02.414Z,101382.59
2022-10-13T00:05:29.398Z,101385.38
2022-10-13T00:07:56.525Z,101379.28
2022-10-13T00:10:23.940Z,101390.81
2022-10-13T00:12:51.904Z,101382.94
2022-10-13T00:15:21.865Z,101382.94
2022-10-13T00:17:48.431Z,101384.38
2022-10-13T00:20:15.094Z,101391.41
2022-10-13T00:22:41.633Z,101391.47
2022-10-13T00:25:08.995Z,101383.53
2022-10-13T00:27:35.616Z,101382.69
2022-10-13T00:30:04.460Z,101395.72
2022-10-13T00:32:31.052Z,101385.03
2022-10-13T00:34:57.687Z,101379.63
2022-10-13T00:37:24.565Z,101380.75
2022-10-13T00:39:51.122Z,101370.78
2022-10-13T00:42:19.567Z,101380.75
2022-10-13T00:45:19.635Z,101380.91
2022-10-13T00:47:49.877Z,101381.84
2022-10-13T00:50:19.505Z,101366.28
2022-10-13T00:52:49.835Z,101381.84
2022-10-13T00:55:22.160Z,101372.19
2022-10-13T00:57:51.028Z,101375.75
2022-10-13T01:00:18.934Z,101350.50
2022-10-13T01:02:45.534Z,101359.00
2022-10-13T01:05:12.083Z,101377.63
2022-10-13T01:07:38.658Z,101371.53
2022-10-13T01:10:06.079Z,101365.25
2022-10-13T01:12:47.973Z,101370.25
2022-10-13T01:15:22.353Z,101340.59
2022-10-13T01:18:02.173Z,101359.78
2022-10-13T01:20:50.509Z,101350.88
2022-10-13T01:23:45.165Z,101357.72
2022-10-13T01:26:34.499Z,101346.47
2022-10-13T01:29:42.668Z,101344.69
2022-10-13T01:32:14.637Z,101343.84
2022-10-13T01:34:44.260Z,101347.50
2022-10-13T01:37:20.545Z,101330.94
2022-10-13T01:39:54.938Z,101337.75
2022-10-13T01:42:25.865Z,101322.66
2022-10-13T01:45:00.420Z,101330.66
2022-10-13T01:47:28.956Z,101325.22
2022-10-13T01:49:56.662Z,101322.78
2022-10-13T01:52:27.693Z,101300.19
2022-10-13T01:54:54.744Z,101315.41
2022-10-13T01:57:30.523Z,101315.34
2022-10-13T01:59:59.731Z,101305.66
2022-10-13T02:02:31.805Z,101314.28
2022-10-13T02:05:08.432Z,101309.97
2022-10-13T02:07:42.604Z,101307.34
2022-10-13T02:10:17.561Z,101284.41
2022-10-13T02:12:52.229Z,101288.63
2022-10-13T02:15:24.312Z,101303.81
2022-10-13T02:17:52.048Z,101294.16
2022-10-13T02:20:20.325Z,101299.50
2022-10-13T02:22:53.045Z,101280.75
2022-10-13T02:25:19.622Z,101295.94
2022-10-13T02:27:46.328Z,101285.25
2022-10-13T02:30:23.226Z,101288.34
2022-10-13T02:32:49.881Z,101290.13
2022-10-13T02:35:16.805Z,101257.28
2022-10-13T02:37:43.574Z,101295.28
2022-10-13T02:40:11.157Z,101271.06
2022-10-13T02:42:37.760Z,101259.81
2022-10-13T02:45:04.968Z,101293.88
2022-10-13T02:47:32.951Z,101295.66
2022-10-13T02:50:02.400Z,101292.09
2022-10-13T02:52:28.982Z,101293.50
2022-10-13T02:54:55.496Z,101296.22
2022-10-13T02:57:22.400Z,101293.94
2022-10-13T02:59:49.488Z,101295.53
2022-10-13T03:02:16.527Z,101301.63
2022-10-13T03:04:44.507Z,101299.69
2022-10-13T03:07:11.490Z,101296.22
2022-10-13T03:09:38.240Z,101271.81
2022-10-13T03:12:05.161Z,101304.56
2022-10-13T03:14:31.767Z,101305.50
2022-10-13T03:16:58.357Z,101305.31
2022-10-13T03:19:24.890Z,101303.63
2022-10-13T03:21:52.887Z,101299.25
2022-10-13T03:24:19.470Z,101296.41
2022-10-13T03:26:46.029Z,101299.81
2022-10-13T03:29:15.434Z,101275.16
2022-10-13T03:31:42.110Z,101269.78
2022-10-13T03:34:08.824Z,101278.16
2022-10-13T03:36:35.451Z,101295.97
2022-10-13T03:39:03.490Z,101296.81
2022-10-13T03:41:30.186Z,101297.47
2022-10-13T03:43:56.806Z,101294.00
2022-10-13T03:46:26.298Z,101283.34
2022-10-13T03:48:53.237Z,101280.78
2022-10-13T03:51:21.723Z,101284.44
2022-10-13T03:53:49.568Z,101271.31
2022-10-13T03:56:19.484Z,101257.06
2022-10-13T03:58:52.588Z,101258.41
2022-10-13T04:01:19.407Z,101263.28
2022-10-13T04:03:46.436Z,101256.53
2022-10-13T04:06:13.163Z,101200.69
2022-10-13T04:08:39.782Z,101251.09
2022-10-13T04:11:08.778Z,101234.88
2022-10-13T04:13:40.234Z,101224.84
2022-10-13T04:16:08.494Z,101241.72
2022-10-13T04:18:35.412Z,101255.41
2022-10-13T04:21:02.003Z,101242.84
2022-10-13T04:23:28.510Z,101235.06
2022-10-13T04:25:55.085Z,101241.53
2022-10-13T04:28:21.671Z,101236.41
2022-10-13T04:30:49.829Z,101219.03
2022-10-13T04:33:16.398Z,101234.25
2022-10-13T04:35:42.996Z,101233.88
2022-10-13T04:38:09.571Z,101241.72
2022-10-13T04:40:36.126Z,101183.91
2022-10-13T04:43:03.063Z,101239.13
2022-10-13T04:45:29.731Z,101226.72
2022-10-13T04:47:57.611Z,101233.88
2022-10-13T04:50:24.176Z,101227.00
2022-10-13T04:52:59.013Z,101222.63
2022-10-13T04:55:25.662Z,101233.19
2022-10-13T04:57:52.162Z,101233.19
2022-10-13T05:00:18.786Z,101224.38
2022-10-13T05:02:45.833Z,101199.97
2022-10-13T05:05:13.741Z,101220.66
2022-10-13T05:07:40.242Z,101219.81
2022-10-13T05:10:07.337Z,101212.78
2022-10-13T05:12:34.034Z,101200.78
2022-10-13T05:15:00.651Z,101186.25
2022-10-13T05:17:34.865Z,101225.06
2022-10-13T05:20:06.410Z,101221.59
2022-10-13T05:22:34.357Z,101204.09
2022-10-13T05:25:00.830Z,101211.00
2022-10-13T05:27:27.393Z,101200.03
2022-10-13T05:29:53.963Z,101220.75
2022-10-13T05:32:20.925Z,101224.94
2022-10-13T05:34:47.744Z,101224.56
2022-10-13T05:37:14.310Z,101222.81
2022-10-13T05:39:42.271Z,101210.16
2022-10-13T05:42:08.821Z,101090.56
2022-10-13T05:44:35.355Z,101208.59
2022-10-13T05:47:07.223Z,101179.25
2022-10-13T05:49:34.166Z,101195.00
2022-10-13T05:52:06.067Z,101202.28
2022-10-13T05:54:34.852Z,101202.47
2022-10-13T05:57:06.326Z,101184.13
2022-10-13T05:59:35.511Z,101178.13
2022-10-13T06:02:03.043Z,101166.50
2022-10-13T06:04:34.740Z,101192.16
2022-10-13T06:07:01.561Z,101200.88
2022-10-13T06:09:33.371Z,101191.78
2022-10-13T06:11:59.891Z,101184.94
2022-10-13T06:14:27.752Z,101177.66
2022-10-13T06:16:54.298Z,101179.13
2022-10-13T06:19:20.813Z,101187.28
2022-10-13T06:21:47.409Z,101164.44
2022-10-13T06:24:13.947Z,101186.16
2022-10-13T06:26:40.538Z,101187.75
2022-10-13T06:29:07.196Z,101189.34
2022-10-13T06:31:35.578Z,101195.97
2022-10-13T06:34:04.536Z,101187.47
2022-10-13T06:36:31.137Z,101178.19
2022-10-13T06:38:57.654Z,101190.47
2022-10-13T06:41:24.275Z,101185.84
2022-10-13T06:43:50.798Z,101179.66
2022-10-13T06:46:17.434Z,101194.28
2022-10-13T06:48:45.413Z,101170.56
2022-10-13T06:51:12.250Z,101194.00
2022-10-13T06:53:38.833Z,101194.56
2022-10-13T06:56:07.766Z,101187.13
2022-10-13T06:58:34.343Z,101193.94
2022-10-13T07:01:01.055Z,101181.94
2022-10-13T07:03:27.625Z,101181.63
2022-10-13T07:06:00.254Z,101192.03
2022-10-13T07:08:26.870Z,101174.38
2022-10-13T07:10:53.492Z,101193.03
2022-10-13T07:15:46.840Z,101183.41
2022-10-13T07:18:13.483Z,101190.78
2022-10-13T07:20:40.059Z,101204.47
2022-10-13T07:23:08.076Z,101193.56
2022-10-13T07:25:34.586Z,101197.47
2022-10-13T07:28:01.189Z,101196.09
2022-10-13T07:30:30.224Z,101142.94
2022-10-13T07:32:56.837Z,101166.31
2022-10-13T07:35:28.226Z,101188.75
2022-10-13T07:37:57.478Z,101175.91
2022-10-13T07:40:25.430Z,101192.56
2022-10-13T07:42:51.997Z,101179.06
2022-10-13T07:45:18.538Z,101193.91
2022-10-13T07:47:45.177Z,101205.09
2022-10-13T07:50:11.710Z,101196.66
2022-10-13T07:52:38.295Z,101182.97
2022-10-13T07:55:05.874Z,101207.22
2022-10-13T07:57:33.913Z,101180.38
2022-10-13T08:00:00.808Z,101188.91
2022-10-13T08:02:27.418Z,101193.84
2022-10-13T08:04:53.925Z,101198.34
2022-10-13T08:07:20.882Z,101187.81
2022-10-13T08:09:47.895Z,101194.00
2022-10-13T08:12:14.553Z,101187.03
2022-10-13T08:14:42.576Z,101178.81
2022-10-13T08:17:09.811Z,101170.03
2022-10-13T08:19:36.368Z,101160.00
2022-10-13T08:22:05.526Z,101121.31
2022-10-13T08:24:36.335Z,101167.97
2022-10-13T08:27:03.446Z,101145.28
2022-10-13T08:29:30.057Z,101125.06
2022-10-13T08:31:57.974Z,101147.72
2022-10-13T08:34:25.248Z,101126.53
2022-10-13T08:36:52.101Z,101159.44
2022-10-13T08:39:19.789Z,101136.44
2022-10-13T08:41:46.584Z,101154.94
2022-10-13T08:45:02.662Z,101114.38
2022-10-13T08:47:18.063Z,101156.19
2022-10-13T08:49:44.916Z,101154.84
2022-10-13T08:52:16.615Z,101156.78
2022-10-13T08:54:43.150Z,101156.66
2022-10-13T08:57:10.840Z,101156.63
2022-10-13T08:59:37.578Z,101117.41
2022-10-13T09:02:13.141Z,101156.69
2022-10-13T09:04:44.026Z,101153.06
2022-10-13T09:07:15.517Z,101140.50
2022-10-13T09:09:42.628Z,101143.81
2022-10-13T09:12:10.872Z,101147.56
2022-10-13T09:14:39.454Z,101141.16
2022-10-13T09:17:16.115Z,101140.69
2022-10-13T09:19:42.869Z,101137.72
2022-10-13T09:22:22.537Z,101146.97
2022-10-13T09:25:07.748Z,101141.75
2022-10-13T09:27:42.281Z,101137.06
2022-10-13T09:30:25.987Z,101142.84
2022-10-13T09:33:05.137Z,101138.16
2022-10-13T09:35:31.776Z,101137.88
2022-10-13T09:38:04.170Z,101122.81
2022-10-13T09:40:31.290Z,101126.22
2022-10-13T09:42:59.967Z,101123.84
2022-10-13T09:45:27.480Z,101124.53
2022-10-13T09:47:57.993Z,101135.56
2022-10-13T09:50:27.017Z,101132.22
2022-10-13T09:53:09.128Z,101135.28
2022-10-13T09:55:36.618Z,101127.28
2022-10-13T09:58:10.652Z,101128.84
2022-10-13T10:00:39.491Z,101126.03
2022-10-13T10:03:15.878Z,101124.47
2022-10-13T10:05:49.277Z,101122.75
2022-10-13T10:08:28.954Z,101119.69
2022-10-13T10:11:03.197Z,101110.00
2022-10-13T10:13:29.731Z,101082.50
2022-10-13T10:16:02.536Z,101101.16
2022-10-13T10:18:36.319Z,101105.88
2022-10-13T10:21:08.485Z,101108.25
2022-10-13T10:23:46.953Z,101094.97
2022-10-13T10:26:23.178Z,101113.34
2022-10-13T10:29:14.179Z,101106.72
2022-10-13T10:31:53.904Z,101107.34
2022-10-13T10:34:32.485Z,101095.25
2022-10-13T10:37:13.682Z,101091.06
2022-10-13T10:39:46.734Z,101093.22
2022-10-13T10:42:33.533Z,101094.78
2022-10-13T10:45:02.877Z,101089.31
2022-10-13T10:47:36.759Z,101083.16
2022-10-13T10:50:06.618Z,101090.84
2022-10-13T10:52:45.672Z,101088.50
2022-10-13T10:55:20.484Z,101071.84
2022-10-13T10:57:57.820Z,101067.84
2022-10-13T11:00:24.888Z,101069.53
2022-10-13T11:03:00.651Z,101065.88
2022-10-13T11:06:00.673Z,101060.78
2022-10-13T11:08:29.512Z,101055.31
2022-10-13T11:11:43.366Z,101054.59
2022-10-13T11:14:30.562Z,101050.31
2022-10-13T11:17:27.106Z,101053.25
2022-10-13T11:19:53.989Z,101046.09
2022-10-13T11:22:24.305Z,101034.34
2022-10-13T11:25:04.136Z,101033.41
2022-10-13T11:28:00.289Z,101037.91
2022-10-13T11:30:42.403Z,101027.59
2022-10-13T11:33:51.376Z,101026.91
2022-10-13T11:36:51.782Z,101022.25
2022-10-13T11:39:55.906Z,101016.91
2022-10-13T11:42:38.786Z,101026.41
2022-10-13T11:45:19.594Z,101025.25
2022-10-13T11:48:04.075Z,101030.09
2022-10-13T11:50:36.954Z,101020.41
2022-10-13T11:53:14.564Z,101018.75
2022-10-13T11:55:49.050Z,101010.06
2022-10-13T11:58:18.062Z,101009.72
2022-10-13T12:00:52.826Z,101001.72
2022-10-13T12:03:26.288Z,101001.72
2022-10-13T12:05:57.695Z,101000.22
2022-10-13T12:08:27.589Z,100991.72
2022-10-13T12:10:56.200Z,100988.88
2022-10-13T12:13:25.518Z,100990.03
2022-10-13T12:15:59.122Z,100984.34
2022-10-13T12:18:27.897Z,100986.81
2022-10-13T12:20:56.003Z,100984.69
2022-10-13T12:23:23.190Z,100979.34
2022-10-13T12:25:51.846Z,100985.81
2022-10-13T12:28:20.012Z,100985.19
2022-10-13T12:30:54.581Z,100975.34
2022-10-13T12:33:26.620Z,100980.00
2022-10-13T12:35:53.748Z,100980.81
2022-10-13T12:38:22.001Z,100972.97
2022-10-13T12:40:50.254Z,100978.31
2022-10-13T12:43:22.626Z,100981.84
2022-10-13T12:45:49.354Z,100989.19
2022-10-13T12:48:29.939Z,100956.88
2022-10-13T12:51:14.483Z,100972.38
2022-10-13T12:53:44.468Z,100980.06
2022-10-13T12:56:22.697Z,100965.72
2022-10-13T12:58:50.770Z,100963.53
2022-10-13T13:01:31.966Z,100962.38
2022-10-13T13:04:01.429Z,100974.00
2022-10-13T13:06:36.826Z,100969.50
2022-10-13T13:09:23.139Z,100966.00
2022-10-13T13:12:03.646Z,100965.84
2022-10-13T13:14:38.889Z,100960.66
2022-10-13T13:17:11.090Z,100963.84
2022-10-13T13:19:38.364Z,100958.50
2022-10-13T13:22:05.982Z,100960.84
2022-10-13T13:24:40.151Z,100970.38
2022-10-13T13:27:17.902Z,100970.53
2022-10-13T13:29:46.511Z,100971.53
2022-10-13T13:32:14.316Z,100963.38
2022-10-13T13:34:41.180Z,100961.03
2022-10-13T13:37:13.920Z,100968.72
2022-10-13T13:39:40.888Z,100970.03
2022-10-13T13:42:13.792Z,100968.72
2022-10-13T13:44:43.118Z,100969.06
2022-10-13T13:47:16.597Z,100967.06
2022-10-13T13:49:46.234Z,100965.03
2022-10-13T13:52:12.981Z,100966.88
2022-10-13T13:54:39.597Z,100966.72
2022-10-13T13:57:06.161Z,100960.06
2022-10-13T13:59:33.011Z,100961.22
2022-10-13T14:01:59.742Z,100961.53
2022-10-13T14:04:30.178Z,100956.88
2022-10-13T14:06:57.126Z,100956.19
2022-10-13T14:09:23.657Z,100956.34
2022-10-13T14:11:50.297Z,100961.84
2022-10-13T14:14:16.821Z,100945.19
2022-10-13T14:16:43.491Z,100951.22
2022-10-13T14:19:10.000Z,100949.84
2022-10-13T14:21:37.925Z,100948.88
2022-10-13T14:24:10.590Z,100938.03
2022-10-13T14:26:37.192Z,100938.69
2022-10-13T14:29:03.927Z,100939.84
2022-10-13T14:31:30.554Z,100930.22
2022-10-13T14:33:57.080Z,100930.38
2022-10-13T14:36:25.212Z,100926.69
2022-10-13T14:38:53.142Z,100918.88
2022-10-13T14:41:19.711Z,100926.53
2022-10-13T14:43:52.222Z,100922.72
2022-10-13T14:46:18.834Z,100925.69
2022-10-13T14:48:45.359Z,100919.03
2022-10-13T14:51:12.366Z,100931.22
2022-10-13T14:53:40.621Z,100926.03
2022-10-13T14:56:17.571Z,100923.81
2022-10-13T14:58:50.582Z,100929.16
2022-10-13T15:01:19.581Z,100924.13
2022-10-13T15:03:46.462Z,100926.66
2022-10-13T15:06:14.737Z,100924.63
2022-10-13T15:08:42.118Z,100918.44
2022-10-13T15:11:08.915Z,100923.41
2022-10-13T15:13:37.512Z,100923.56
2022-10-13T15:16:05.265Z,100903.41
2022-10-13T15:18:32.800Z,100920.06
2022-10-13T15:20:59.633Z,100911.06
2022-10-13T15:23:26.504Z,100910.75
2022-10-13T15:25:55.182Z,100917.38
2022-10-13T15:28:22.631Z,100895.88
2022-10-13T15:30:51.078Z,100917.38
2022-10-13T15:33:21.342Z,100899.38
2022-10-13T15:35:48.713Z,100907.88
2022-10-13T15:38:15.329Z,100907.19
2022-10-13T15:40:42.158Z,100898.84
2022-10-13T15:43:08.764Z,100896.84
2022-10-13T15:45:35.663Z,100906.19
2022-10-13T15:48:06.448Z,100903.53
2022-10-13T15:50:33.114Z,100892.97
2022-10-13T15:52:59.692Z,100909.16
2022-10-13T15:55:26.289Z,100905.81
2022-10-13T15:57:52.803Z,100906.16
2022-10-13T16:00:19.477Z,100907.47
2022-10-13T16:02:49.744Z,100899.78
2022-10-13T16:05:18.908Z,100892.09
2022-10-13T16:07:45.491Z,100903.25
2022-10-13T16:10:14.649Z,100901.75
2022-10-13T16:12:46.840Z,100882.34
2022-10-13T16:15:17.096Z,100899.16
2022-10-13T16:17:43.698Z,100894.31
2022-10-13T16:20:11.311Z,100889.47
2022-10-13T16:22:39.252Z,100893.44
2022-10-13T16:25:07.401Z,100894.25
2022-10-13T16:27:33.883Z,100891.19
2022-10-13T16:30:00.412Z,100882.84
2022-10-13T16:32:26.918Z,100891.81
2022-10-13T16:34:53.715Z,100881.44
2022-10-13T16:37:20.620Z,100882.28
2022-10-13T16:39:51.732Z,100883.59
2022-10-13T16:42:18.572Z,100876.31
2022-10-13T16:44:45.064Z,100893.81
2022-10-13T16:47:17.340Z,100881.66
2022-10-13T16:49:44.924Z,100885.75
2022-10-13T16:52:12.194Z,100885.25
2022-10-13T16:54:38.709Z,100884.56
2022-10-13T16:57:06.556Z,100893.97
2022-10-13T16:59:33.153Z,100877.66
2022-10-13T17:01:59.666Z,100885.94
2022-10-13T17:04:26.218Z,100886.41
2022-10-13T17:06:52.804Z,100886.53
2022-10-13T17:09:19.348Z,100890.34
2022-10-13T17:11:45.857Z,100889.66
2022-10-13T17:14:13.767Z,100893.31
2022-10-13T17:16:40.345Z,100890.00
2022-10-13T17:19:06.893Z,100878.25
2022-10-13T17:21:35.888Z,100886.38
2022-10-13T17:24:04.787Z,100895.47
2022-10-13T17:26:32.964Z,100896.63
2022-10-13T17:28:59.826Z,100885.44
2022-10-13T17:31:27.848Z,100896.06
2022-10-13T17:33:54.405Z,100891.91
2022-10-13T17:36:22.765Z,100898.34
2022-10-13T17:38:50.254Z,100879.84
2022-10-13T17:41:17.684Z,100899.66
2022-10-13T17:43:49.549Z,100888.78
2022-10-13T17:46:36.324Z,100896.91
2022-10-13T17:49:06.139Z,100898.88
2022-10-13T17:51:32.626Z,100904.34
2022-10-13T17:53:59.866Z,100909.66
2022-10-13T17:56:26.964Z,100884.31
2022-10-13T17:58:53.880Z,100899.09
2022-10-13T18:01:22.300Z,100905.59
2022-10-13T18:03:53.361Z,100898.66
2022-10-13T18:06:31.470Z,100903.50
2022-10-13T18:09:04.427Z,100881.09
2022-10-13T18:11:31.452Z,100902.44
2022-10-13T18:13:58.546Z,100908.03
2022-10-13T18:16:25.143Z,100908.03
2022-10-13T18:18:53.818Z,100901.66
2022-10-13T18:21:22.212Z,100894.44
2022-10-13T18:23:53.498Z,100907.63
2022-10-13T18:26:20.496Z,100908.63
2022-10-13T18:28:48.475Z,100898.44
2022-10-13T18:31:20.259Z,100912.94
2022-10-13T18:33:50.074Z,100913.53
2022-10-13T18:36:19.108Z,100916.19
2022-10-13T18:38:46.400Z,100892.50
2022-10-13T18:41:15.024Z,100917.19
2022-10-13T18:43:41.646Z,100903.66
2022-10-13T18:46:08.770Z,100920.53
2022-10-13T18:48:35.660Z,100923.19
2022-10-13T18:51:03.172Z,100906.56
2022-10-13T18:53:29.769Z,100916.88
2022-10-13T18:56:01.170Z,100917.72
2022-10-13T18:58:29.569Z,100921.81
2022-10-13T19:00:58.945Z,100914.44
2022-10-13T19:03:25.646Z,100922.78
2022-10-13T19:05:52.163Z,100913.69
2022-10-13T19:08:18.677Z,100897.13
2022-10-13T19:10:45.224Z,100918.59
2022-10-13T19:13:11.819Z,100917.75
2022-10-13T19:15:39.687Z,100916.41
2022-10-13T19:18:06.466Z,100920.41
2022-10-13T19:20:33.020Z,100926.88
2022-10-13T19:23:04.198Z,100928.56
2022-10-13T19:25:30.755Z,100929.66
2022-10-13T19:27:57.595Z,100917.56
2022-10-13T19:30:25.520Z,100925.09
2022-10-13T19:32:54.546Z,100933.59
2022-10-13T19:35:21.156Z,100931.94
2022-10-13T19:37:47.661Z,100938.22
2022-10-13T19:40:14.387Z,100947.72
2022-10-13T19:42:40.900Z,100941.56
2022-10-13T19:45:08.312Z,100945.06
2022-10-13T19:47:34.801Z,100942.94
2022-10-13T19:50:03.009Z,100937.94
2022-10-13T19:52:29.535Z,100951.34
2022-10-13T19:54:56.762Z,100947.00
2022-10-13T19:57:23.645Z,100951.19
2022-10-13T19:59:51.819Z,100944.50
2022-10-13T20:02:18.322Z,100956.25
2022-10-13T20:04:45.047Z,100944.81
2022-10-13T20:07:12.907Z,100946.75
2022-10-13T20:09:39.390Z,100944.53
2022-10-13T20:12:06.134Z,100940.22
2022-10-13T20:14:34.269Z,100944.16
2022-10-13T20:17:00.848Z,100935.09
2022-10-13T20:19:27.438Z,100946.38
2022-10-13T20:21:53.930Z,100945.72
2022-10-13T20:24:22.271Z,100946.81
2022-10-13T20:26:49.276Z,100951.28
2022-10-13T20:29:20.806Z,100940.59
2022-10-13T20:31:47.331Z,100955.75
2022-10-13T20:34:13.858Z,100956.72
2022-10-13T20:36:40.496Z,100963.03
2022-10-13T20:39:07.289Z,100966.94
2022-10-13T20:41:35.358Z,100968.06
2022-10-13T20:44:02.182Z,100966.41
2022-10-13T20:46:31.624Z,100965.56
2022-10-13T20:49:10.456Z,100965.56
2022-10-13T20:51:38.510Z,100961.38
2022-10-13T20:54:05.100Z,100961.66
2022-10-13T20:56:31.720Z,100960.97
2022-10-13T20:59:04.295Z,100960.13
2022-10-13T21:01:30.987Z,100964.59
2022-10-13T21:03:57.470Z,100961.94
2022-10-13T21:06:25.467Z,100953.59
2022-10-13T21:08:52.442Z,100947.75
2022-10-13T21:11:21.032Z,100968.38
2022-10-13T21:13:47.983Z,100955.53
2022-10-13T21:16:19.478Z,100961.25
2022-10-13T21:18:47.729Z,100961.53
2022-10-13T21:21:16.420Z,100952.19
2022-10-13T21:23:43.680Z,100958.59
2022-10-13T21:26:11.896Z,100957.19
2022-10-13T21:28:38.972Z,100958.03
2022-10-13T21:31:07.439Z,100962.50
2022-10-13T21:33:38.180Z,100962.50
2022-10-13T21:36:05.949Z,100966.25
2022-10-13T21:38:32.529Z,100953.84
2022-10-13T21:40:59.085Z,100956.50
2022-10-13T21:43:25.620Z,100955.41
2022-10-13T21:45:52.159Z,100946.72
2022-10-13T21:48:18.879Z,100944.78
2022-10-13T21:50:46.846Z,100948.53
2022-10-13T21:53:13.394Z,100951.31
2022-10-13T21:55:39.974Z,100946.31
2022-10-13T21:58:06.469Z,100952.59
2022-10-13T22:00:33.437Z,100940.22
2022-10-13T22:02:59.976Z,100950.78
2022-10-13T22:05:26.553Z,100951.63
2022-10-13T22:07:58.186Z,100952.88
2022-10-13T22:10:24.756Z,100954.16
2022-10-13T22:12:51.254Z,100936.44
2022-10-13T22:15:17.821Z,100956.09
2022-10-13T22:17:44.353Z,100951.63
2022-10-13T22:20:10.905Z,100950.66
2022-10-13T22:22:37.409Z,100930.28
2022-10-13T22:25:06.920Z,100948.69
2022-10-13T22:27:34.901Z,100954.81
2022-10-13T22:30:01.542Z,100937.84
2022-10-13T22:32:28.085Z,100941.72
2022-10-13T22:34:54.686Z,100935.59
2022-10-13T22:37:21.488Z,100944.78
2022-10-13T22:39:48.216Z,100943.53
2022-10-13T22:42:16.087Z,100942.56
2022-10-13T22:44:42.597Z,100944.25
2022-10-13T22:47:09.322Z,100947.03
2022-10-13T22:49:35.878Z,100948.97
2022-10-13T22:52:03.076Z,100948.84
2022-10-13T22:54:29.868Z,100944.50
2022-10-13T22:56:56.406Z,100944.38
2022-10-13T22:59:24.338Z,100945.09
2022-10-13T23:01:50.954Z,100948.84
2022-10-13T23:04:17.539Z,100941.19
2022-10-13T23:06:44.030Z,100947.31
2022-10-13T23:09:12.658Z,100940.22
2022-10-13T23:11:39.722Z,100933.50
2022-10-13T23:14:07.951Z,100936.03
2022-10-13T23:16:35.894Z,100935.72
2022-10-13T23:19:02.574Z,100934.06
2022-10-13T23:21:30.124Z,100932.53
2022-10-13T23:23:57.731Z,100929.03
2022-10-13T23:26:24.612Z,100926.53
2022-10-13T23:28:52.407Z,100930.00
2022-10-13T23:31:18.936Z,100927.38
2022-10-13T23:33:46.861Z,100929.03
2022-10-13T23:36:15.775Z,100921.22
2022-10-13T23:38:44.097Z,100924.59
2022-10-13T23:41:13.141Z,100922.78
2022-10-13T23:43:40.492Z,100923.75
2022-10-13T23:46:07.991Z,100920.97
2022-10-13T23:48:34.546Z,100923.47
2022-10-13T23:51:07.578Z,100918.19
2022-10-13T23:53:35.567Z,100883.03
2022-10-13T23:56:02.347Z,100907.56
2022-10-13T23:58:29.500Z,100910.06
